Pagina principală
METAR-TAF:

METAR-TAF

Aeroporturi :

Biak, Indonezia

Latitudine: 01-11S, longitudine: 136-07E, elevație: 11 m

METAR: lipsă

Ora: 17:50 (10:50 UTC)

Prognoză

Raportul a fost făcut în urmă cu 5 ore și 50 de minute, la 05:00 UTC
Prognoză valabilă de la 26 ora 06 UTC la 27 ora 12 UTC
Vânt 5 kt de la Vest
Vizibilitate de 10 km sau mai mult
Nori împrăștiați la o înălțime de 1800 picior
Devenind
de la 26 ora 10 UTC la 26 ora 12 UTC
Vânt kt de la Nord

TAF: WABB 260500Z 2606/2712 26005KT 9999 SCT018 BECMG 2610/2612 00000KT

Observații și prognoze meteo pentru peste 4.000 de aeroporturi (rapoarte METAR și TAF).

Stațiile disponibile sunt reprezentate pe hartă prin puncte galbene și roșii.

Țineți indicatorul mouse-ului pe punctul dorit pentru a vedea denumirea stației.

Apoi, faceți clic pentru a vedea observațiile și prognozele meteorologice.

Pentru a schimba harta: Pentru mărire, faceți clic pe butoanele verzi cu cruce neagră; pentru micșorare, pe butonul verde cu o liniuță; pentru hărți învecinate, pe săgețile verzi.


METAR-TAF: